sensor_id;sensor_type;location;lat;lon;timestamp;pressure;altitude;pressure_sealevel;temperature;humidity
32875;BME280;40468;42.128;24.750;2023-01-24T00:00:22;101048.16;;;4.05;95.38
32875;BME280;40468;42.128;24.750;2023-01-24T00:01:54;101065.31;;;4.02;95.40
32875;BME280;40468;42.128;24.750;2023-01-24T00:03:26;101058.44;;;4.01;95.61
32875;BME280;40468;42.128;24.750;2023-01-24T00:04:58;101052.44;;;4.02;95.45
32875;BME280;40468;42.128;24.750;2023-01-24T00:06:30;101061.03;;;4.01;95.40
32875;BME280;40468;42.128;24.750;2023-01-24T00:08:02;101067.91;;;4.02;95.30
32875;BME280;40468;42.128;24.750;2023-01-24T00:09:34;101059.31;;;4.00;95.29
32875;BME280;40468;42.128;24.750;2023-01-24T00:11:08;101066.19;;;3.98;95.28
32875;BME280;40468;42.128;24.750;2023-01-24T00:12:40;101072.19;;;3.97;95.38
32875;BME280;40468;42.128;24.750;2023-01-24T00:14:12;101073.06;;;3.94;95.32
32875;BME280;40468;42.128;24.750;2023-01-24T00:15:45;101066.16;;;3.95;95.22
32875;BME280;40468;42.128;24.750;2023-01-24T00:17:17;101071.31;;;3.95;95.13
32875;BME280;40468;42.128;24.750;2023-01-24T00:18:50;101073.88;;;3.90;95.21
32875;BME280;40468;42.128;24.750;2023-01-24T00:20:22;101063.56;;;3.90;95.37
32875;BME280;40468;42.128;24.750;2023-01-24T00:21:54;101067.03;;;3.91;95.30
32875;BME280;40468;42.128;24.750;2023-01-24T00:23:25;101061.88;;;3.92;95.30
32875;BME280;40468;42.128;24.750;2023-01-24T00:24:56;101061.88;;;3.87;95.30
32875;BME280;40468;42.128;24.750;2023-01-24T00:26:28;101064.44;;;3.89;95.38
32875;BME280;40468;42.128;24.750;2023-01-24T00:28:00;101063.56;;;3.90;95.52
32875;BME280;40468;42.128;24.750;2023-01-24T00:29:31;101066.16;;;3.90;95.52
32875;BME280;40468;42.128;24.750;2023-01-24T00:31:04;101058.41;;;3.87;95.57
32875;BME280;40468;42.128;24.750;2023-01-24T00:32:37;101070.47;;;3.88;95.77
32875;BME280;40468;42.128;24.750;2023-01-24T00:34:08;101067.03;;;3.91;95.66
32875;BME280;40468;42.128;24.750;2023-01-24T00:35:40;101071.31;;;3.92;95.47
32875;BME280;40468;42.128;24.750;2023-01-24T00:37:11;101067.00;;;3.89;95.42
32875;BME280;40468;42.128;24.750;2023-01-24T00:38:43;101067.00;;;3.89;95.50
32875;BME280;40468;42.128;24.750;2023-01-24T00:40:14;101070.44;;;3.90;95.29
32875;BME280;40468;42.128;24.750;2023-01-24T00:41:46;101067.88;;;3.90;95.18
32875;BME280;40468;42.128;24.750;2023-01-24T00:43:18;101073.88;;;3.90;95.28
32875;BME280;40468;42.128;24.750;2023-01-24T00:44:50;101068.75;;;3.92;95.18
32875;BME280;40468;42.128;24.750;2023-01-24T00:46:23;101067.03;;;3.92;95.23
32875;BME280;40468;42.128;24.750;2023-01-24T00:47:55;101073.03;;;3.93;95.13
32875;BME280;40468;42.128;24.750;2023-01-24T00:49:26;101069.63;;;3.91;95.10
32875;BME280;40468;42.128;24.750;2023-01-24T00:50:58;101076.47;;;3.92;95.13
32875;BME280;40468;42.128;24.750;2023-01-24T00:52:29;101077.34;;;3.92;95.06
32875;BME280;40468;42.128;24.750;2023-01-24T00:54:01;101076.47;;;3.92;94.92
32875;BME280;40468;42.128;24.750;2023-01-24T00:55:33;101069.59;;;3.89;95.13
32875;BME280;40468;42.128;24.750;2023-01-24T00:57:05;101073.03;;;3.93;95.05
32875;BME280;40468;42.128;24.750;2023-01-24T00:58:37;101074.75;;;3.91;94.96
32875;BME280;40468;42.128;24.750;2023-01-24T01:00:10;101073.03;;;3.90;95.01
32875;BME280;40468;42.128;24.750;2023-01-24T01:01:43;101073.03;;;3.90;94.61
32875;BME280;40468;42.128;24.750;2023-01-24T01:03:16;101079.88;;;3.84;94.79
32875;BME280;40468;42.128;24.750;2023-01-24T01:04:47;101082.47;;;3.83;94.85
32875;BME280;40468;42.128;24.750;2023-01-24T01:06:19;101077.31;;;3.83;95.01
32875;BME280;40468;42.128;24.750;2023-01-24T01:07:51;101076.44;;;3.81;95.20
32875;BME280;40468;42.128;24.750;2023-01-24T01:09:22;101080.75;;;3.85;95.34
32875;BME280;40468;42.128;24.750;2023-01-24T01:10:53;101092.81;;;3.87;95.03
32875;BME280;40468;42.128;24.750;2023-01-24T01:12:25;101078.19;;;3.88;94.87
32875;BME280;40468;42.128;24.750;2023-01-24T01:13:57;101092.81;;;3.87;95.05
32875;BME280;40468;42.128;24.750;2023-01-24T01:15:29;101082.44;;;3.84;94.83
32875;BME280;40468;42.128;24.750;2023-01-24T01:17:03;101085.03;;;3.84;94.86
32875;BME280;40468;42.128;24.750;2023-01-24T01:18:35;101079.88;;;3.81;94.58
32875;BME280;40468;42.128;24.750;2023-01-24T01:20:08;101076.44;;;3.78;94.77
32875;BME280;40468;42.128;24.750;2023-01-24T01:21:40;101075.59;;;3.79;94.87
32875;BME280;40468;42.128;24.750;2023-01-24T01:23:14;101079.88;;;3.80;94.83
32875;BME280;40468;42.128;24.750;2023-01-24T01:24:46;101079.88;;;3.81;94.62
32875;BME280;40468;42.128;24.750;2023-01-24T01:26:20;101082.47;;;3.83;94.68
32875;BME280;40468;42.128;24.750;2023-01-24T01:27:52;101082.47;;;3.83;94.86
32875;BME280;40468;42.128;24.750;2023-01-24T01:29:23;101078.19;;;3.82;94.80
32875;BME280;40468;42.128;24.750;2023-01-24T01:30:55;101082.44;;;3.80;94.76
32875;BME280;40468;42.128;24.750;2023-01-24T01:32:28;101083.31;;;3.79;94.83
32875;BME280;40468;42.128;24.750;2023-01-24T01:33:59;101074.69;;;3.75;94.87
32875;BME280;40468;42.128;24.750;2023-01-24T01:35:31;101076.44;;;3.73;94.78
32875;BME280;40468;42.128;24.750;2023-01-24T01:37:03;101075.56;;;3.73;94.68
32875;BME280;40468;42.128;24.750;2023-01-24T01:38:35;101070.38;;;3.65;94.70
32875;BME280;40468;42.128;24.750;2023-01-24T01:40:08;101079.84;;;3.68;94.88
32875;BME280;40468;42.128;24.750;2023-01-24T01:41:40;101074.69;;;3.69;94.98
32875;BME280;40468;42.128;24.750;2023-01-24T01:43:15;101081.56;;;3.70;94.85
32875;BME280;40468;42.128;24.750;2023-01-24T01:44:49;101070.38;;;3.70;95.05
32875;BME280;40468;42.128;24.750;2023-01-24T01:46:24;101072.09;;;3.72;95.10
32875;BME280;40468;42.128;24.750;2023-01-24T01:48:00;101067.84;;;3.73;95.15
32875;BME280;40468;42.128;24.750;2023-01-24T01:49:33;101075.56;;;3.73;95.13
32875;BME280;40468;42.128;24.750;2023-01-24T01:51:11;101076.41;;;3.72;95.27
32875;BME280;40468;42.128;24.750;2023-01-24T01:52:44;101077.28;;;3.71;95.09
32875;BME280;40468;42.128;24.750;2023-01-24T01:54:17;101065.22;;;3.70;95.15
32875;BME280;40468;42.128;24.750;2023-01-24T01:55:56;101068.69;;;3.70;95.14
32875;BME280;40468;42.128;24.750;2023-01-24T01:57:30;101072.13;;;3.71;95.22
32875;BME280;40468;42.128;24.750;2023-01-24T01:59:08;101066.94;;;3.69;95.26
32875;BME280;40468;42.128;24.750;2023-01-24T02:00:41;101072.97;;;3.70;95.34
32875;BME280;40468;42.128;24.750;2023-01-24T02:02:21;101078.13;;;3.68;95.36
32875;BME280;40468;42.128;24.750;2023-01-24T02:04:02;101066.09;;;3.67;95.35
32875;BME280;40468;42.128;24.750;2023-01-24T02:05:37;101072.94;;;3.67;95.25
32875;BME280;40468;42.128;24.750;2023-01-24T02:07:10;101076.41;;;3.70;95.34
32875;BME280;40468;42.128;24.750;2023-01-24T02:08:43;101071.25;;;3.64;95.49
32875;BME280;40468;42.128;24.750;2023-01-24T02:10:15;101077.28;;;3.71;95.39
32875;BME280;40468;42.128;24.750;2023-01-24T02:11:50;101079.81;;;3.66;95.33
32875;BME280;40468;42.128;24.750;2023-01-24T02:13:22;101082.41;;;3.64;95.50
32875;BME280;40468;42.128;24.750;2023-01-24T02:14:55;101072.06;;;3.52;95.53
32875;BME280;40468;42.128;24.750;2023-01-24T02:16:46;101084.06;;;3.58;95.72
32875;BME280;40468;42.128;24.750;2023-01-24T02:18:17;101079.81;;;3.58;96.01
32875;BME280;40468;42.128;24.750;2023-01-24T02:20:07;101083.22;;;3.60;96.13
32875;BME280;40468;42.128;24.750;2023-01-24T02:21:43;101088.41;;;3.59;96.24
32875;BME280;40468;42.128;24.750;2023-01-24T02:23:22;101084.94;;;3.57;96.12
32875;BME280;40468;42.128;24.750;2023-01-24T02:25:03;101081.50;;;3.53;96.11
32875;BME280;40468;42.128;24.750;2023-01-24T02:26:38;101090.97;;;3.56;96.09
32875;BME280;40468;42.128;24.750;2023-01-24T02:28:09;101098.66;;;3.54;96.08
32875;BME280;40468;42.128;24.750;2023-01-24T02:29:41;101091.78;;;3.52;96.07
32875;BME280;40468;42.128;24.750;2023-01-24T02:31:12;101092.66;;;3.52;95.89
32875;BME280;40468;42.128;24.750;2023-01-24T02:32:44;101094.38;;;3.50;95.95
32875;BME280;40468;42.128;24.750;2023-01-24T02:34:16;101096.91;;;3.49;95.83
32875;BME280;40468;42.128;24.750;2023-01-24T02:35:47;101097.75;;;3.43;95.80
32875;BME280;40468;42.128;24.750;2023-01-24T02:37:19;101090.91;;;3.45;95.89
32875;BME280;40468;42.128;24.750;2023-01-24T02:38:54;101100.34;;;3.45;95.82
32875;BME280;40468;42.128;24.750;2023-01-24T02:40:29;101102.03;;;3.42;95.68
32875;BME280;40468;42.128;24.750;2023-01-24T02:42:05;101101.16;;;3.39;95.80
32875;BME280;40468;42.128;24.750;2023-01-24T02:43:42;101103.75;;;3.39;95.74
32875;BME280;40468;42.128;24.750;2023-01-24T02:45:16;101096.88;;;3.36;95.71
32875;BME280;40468;42.128;24.750;2023-01-24T02:46:50;101104.59;;;3.36;95.71
32875;BME280;40468;42.128;24.750;2023-01-24T02:48:21;101105.47;;;3.38;95.70
32875;BME280;40468;42.128;24.750;2023-01-24T02:49:52;101107.16;;;3.36;95.60
32875;BME280;40468;42.128;24.750;2023-01-24T02:51:24;101101.16;;;3.36;95.65
32875;BME280;40468;42.128;24.750;2023-01-24T02:53:14;101106.28;;;3.33;95.85
32875;BME280;40468;42.128;24.750;2023-01-24T02:54:59;101100.28;;;3.32;95.94
32875;BME280;40468;42.128;24.750;2023-01-24T02:56:31;101099.41;;;3.30;96.00
32875;BME280;40468;42.128;24.750;2023-01-24T02:58:22;101093.38;;;3.28;96.09
32875;BME280;40468;42.128;24.750;2023-01-24T02:59:52;101089.09;;;3.26;95.99
32875;BME280;40468;42.128;24.750;2023-01-24T03:01:24;101092.56;;;3.29;96.19
32875;BME280;40468;42.128;24.750;2023-01-24T03:02:55;101100.25;;;3.31;96.30
32875;BME280;40468;42.128;24.750;2023-01-24T03:04:27;101099.41;;;3.30;96.29
32875;BME280;40468;42.128;24.750;2023-01-24T03:05:59;101096.84;;;3.29;96.37
32875;BME280;40468;42.128;24.750;2023-01-24T03:07:31;101102.00;;;3.32;96.41
32875;BME280;40468;42.128;24.750;2023-01-24T03:09:11;101102.84;;;3.29;96.50
32875;BME280;40468;42.128;24.750;2023-01-24T03:10:49;101091.66;;;3.27;96.33
32875;BME280;40468;42.128;24.750;2023-01-24T03:12:20;101083.94;;;3.24;96.50
32875;BME280;40468;42.128;24.750;2023-01-24T03:14:11;101099.41;;;3.26;96.25
32875;BME280;40468;42.128;24.750;2023-01-24T03:16:00;101097.66;;;3.23;96.07
32875;BME280;40468;42.128;24.750;2023-01-24T03:17:49;101093.34;;;3.19;96.23
32875;BME280;40468;42.128;24.750;2023-01-24T03:19:39;101096.75;;;3.15;96.21
32875;BME280;40468;42.128;24.750;2023-01-24T03:21:28;101095.03;;;3.15;96.14
32875;BME280;40468;42.128;24.750;2023-01-24T03:23:17;101096.75;;;3.15;96.16
32875;BME280;40468;42.128;24.750;2023-01-24T03:25:07;101099.31;;;3.13;96.12
32875;BME280;40468;42.128;24.750;2023-01-24T03:26:57;101101.88;;;3.12;96.06
32875;BME280;40468;42.128;24.750;2023-01-24T03:28:45;101092.44;;;3.09;96.30
32875;BME280;40468;42.128;24.750;2023-01-24T03:30:36;101096.72;;;3.09;96.30
32875;BME280;40468;42.128;24.750;2023-01-24T03:32:25;101098.44;;;3.10;96.36
32875;BME280;40468;42.128;24.750;2023-01-24T03:34:15;101093.25;;;3.07;96.42
32875;BME280;40468;42.128;24.750;2023-01-24T03:36:03;101091.56;;;3.06;96.47
32875;BME280;40468;42.128;24.750;2023-01-24T03:37:36;101096.69;;;3.07;96.49
32875;BME280;40468;42.128;24.750;2023-01-24T03:39:26;101094.97;;;3.03;96.54
32875;BME280;40468;42.128;24.750;2023-01-24T03:41:15;101097.53;;;3.03;96.61
32875;BME280;40468;42.128;24.750;2023-01-24T03:42:47;101095.00;;;3.05;96.56
32875;BME280;40468;42.128;24.750;2023-01-24T03:44:18;101094.97;;;3.03;96.56
32875;BME280;40468;42.128;24.750;2023-01-24T03:45:53;101093.25;;;3.04;96.54
32875;BME280;40468;42.128;24.750;2023-01-24T03:47:25;101086.34;;;3.01;96.68
32875;BME280;40468;42.128;24.750;2023-01-24T03:48:57;101091.53;;;3.03;97.11
32875;BME280;40468;42.128;24.750;2023-01-24T03:50:31;101086.38;;;3.03;97.12
32875;BME280;40468;42.128;24.750;2023-01-24T03:52:20;101088.06;;;2.97;97.19
32875;BME280;40468;42.128;24.750;2023-01-24T03:54:01;101096.66;;;3.00;97.17
32875;BME280;40468;42.128;24.750;2023-01-24T03:55:33;101086.34;;;2.96;97.13
32875;BME280;40468;42.128;24.750;2023-01-24T03:57:05;101093.19;;;2.94;97.22
32875;BME280;40468;42.128;24.750;2023-01-24T03:58:37;101093.16;;;2.91;97.48
32875;BME280;40468;42.128;24.750;2023-01-24T04:00:10;101084.59;;;2.91;97.54
32875;BME280;40468;42.128;24.750;2023-01-24T04:01:43;101092.31;;;2.92;97.54
32875;BME280;40468;42.128;24.750;2023-01-24T04:03:16;101088.03;;;2.91;97.56
32875;BME280;40468;42.128;24.750;2023-01-24T04:04:47;101089.75;;;2.91;97.45
32875;BME280;40468;42.128;24.750;2023-01-24T04:06:37;101097.47;;;2.91;97.61
32875;BME280;40468;42.128;24.750;2023-01-24T04:08:09;101089.72;;;2.89;97.59
32875;BME280;40468;42.128;24.750;2023-01-24T04:09:41;101089.72;;;2.89;97.65
32875;BME280;40468;42.128;24.750;2023-01-24T04:11:11;101082.00;;;2.89;97.55
32875;BME280;40468;42.128;24.750;2023-01-24T04:12:43;101087.97;;;2.85;97.61
32875;BME280;40468;42.128;24.750;2023-01-24T04:14:15;101088.88;;;2.87;97.63
32875;BME280;40468;42.128;24.750;2023-01-24T04:15:47;101084.56;;;2.88;97.57
32875;BME280;40468;42.128;24.750;2023-01-24T04:17:20;101083.72;;;2.87;97.62
32875;BME280;40468;42.128;24.750;2023-01-24T04:18:51;101075.97;;;2.81;97.60
32875;BME280;40468;42.128;24.750;2023-01-24T04:20:23;101083.72;;;2.87;97.64
32875;BME280;40468;42.128;24.750;2023-01-24T04:21:55;101084.53;;;2.86;97.74
32875;BME280;40468;42.128;24.750;2023-01-24T04:23:27;101076.84;;;2.85;97.52
32875;BME280;40468;42.128;24.750;2023-01-24T04:24:59;101079.41;;;2.85;97.49
32875;BME280;40468;42.128;24.750;2023-01-24T04:26:31;101086.28;;;2.84;97.58
32875;BME280;40468;42.128;24.750;2023-01-24T04:28:03;101090.56;;;2.85;97.49
32875;BME280;40468;42.128;24.750;2023-01-24T04:29:35;101094.00;;;2.84;97.54
32875;BME280;40468;42.128;24.750;2023-01-24T04:31:08;101090.50;;;2.81;97.46
32875;BME280;40468;42.128;24.750;2023-01-24T04:32:41;101093.94;;;2.78;97.48
32875;BME280;40468;42.128;24.750;2023-01-24T04:34:12;101092.22;;;2.76;97.47
32875;BME280;40468;42.128;24.750;2023-01-24T04:35:44;101094.78;;;2.76;97.37
32875;BME280;40468;42.128;24.750;2023-01-24T04:37:16;101097.31;;;2.74;97.40
32875;BME280;40468;42.128;24.750;2023-01-24T04:38:47;101094.72;;;2.71;97.26
32875;BME280;40468;42.128;24.750;2023-01-24T04:40:20;101095.59;;;2.70;97.32
32875;BME280;40468;42.128;24.750;2023-01-24T04:41:50;101090.44;;;2.67;97.17
32875;BME280;40468;42.128;24.750;2023-01-24T04:43:22;101088.69;;;2.64;97.09
32875;BME280;40468;42.128;24.750;2023-01-24T04:44:54;101095.53;;;2.64;97.17
32875;BME280;40468;42.128;24.750;2023-01-24T04:46:27;101089.53;;;2.63;97.11
32875;BME280;40468;42.128;24.750;2023-01-24T04:48:00;101095.53;;;2.62;97.04
32875;BME280;40468;42.128;24.750;2023-01-24T04:49:32;101098.94;;;2.63;96.97
32875;BME280;40468;42.128;24.750;2023-01-24T04:51:04;101102.41;;;2.63;97.03
32875;BME280;40468;42.128;24.750;2023-01-24T04:52:36;101104.94;;;2.62;97.08
32875;BME280;40468;42.128;24.750;2023-01-24T04:54:09;101103.22;;;2.62;97.26
32875;BME280;40468;42.128;24.750;2023-01-24T04:55:40;101092.94;;;2.59;97.05
32875;BME280;40468;42.128;24.750;2023-01-24T04:57:12;101099.81;;;2.62;97.10
32875;BME280;40468;42.128;24.750;2023-01-24T04:58:44;101099.81;;;2.62;97.10
32875;BME280;40468;42.128;24.750;2023-01-24T05:00:15;101096.34;;;2.60;97.13
32875;BME280;40468;42.128;24.750;2023-01-24T05:01:47;101105.81;;;2.62;97.06
32875;BME280;40468;42.128;24.750;2023-01-24T05:03:21;101099.81;;;2.62;97.27
32875;BME280;40468;42.128;24.750;2023-01-24T05:04:52;101092.06;;;2.59;97.23
32875;BME280;40468;42.128;24.750;2023-01-24T05:06:24;101102.34;;;2.60;97.15
32875;BME280;40468;42.128;24.750;2023-01-24T05:07:56;101101.47;;;2.57;97.29
32875;BME280;40468;42.128;24.750;2023-01-24T05:09:28;101095.47;;;2.55;97.40
32875;BME280;40468;42.128;24.750;2023-01-24T05:11:00;101104.00;;;2.54;97.31
32875;BME280;40468;42.128;24.750;2023-01-24T05:12:32;101104.00;;;2.54;97.66
32875;BME280;40468;42.128;24.750;2023-01-24T05:14:05;101104.88;;;2.53;97.53
32875;BME280;40468;42.128;24.750;2023-01-24T05:15:39;101108.31;;;2.53;97.49
32875;BME280;40468;42.128;24.750;2023-01-24T05:17:16;101115.16;;;2.53;97.42
32875;BME280;40468;42.128;24.750;2023-01-24T05:18:50;101110.00;;;2.49;97.42
32875;BME280;40468;42.128;24.750;2023-01-24T05:20:22;101106.56;;;2.50;97.50
32875;BME280;40468;42.128;24.750;2023-01-24T05:21:53;101104.88;;;2.53;97.51
32875;BME280;40468;42.128;24.750;2023-01-24T05:23:25;101117.72;;;2.54;97.38
32875;BME280;40468;42.128;24.750;2023-01-24T05:24:57;101114.31;;;2.54;97.26
32875;BME280;40468;42.128;24.750;2023-01-24T05:26:29;101116.84;;;2.50;97.07
32875;BME280;40468;42.128;24.750;2023-01-24T05:28:01;101122.00;;;2.49;96.95
32875;BME280;40468;42.128;24.750;2023-01-24T05:29:33;101115.13;;;2.49;96.74
32875;BME280;40468;42.128;24.750;2023-01-24T05:31:05;101116.84;;;2.50;96.75
32875;BME280;40468;42.128;24.750;2023-01-24T05:32:39;101105.66;;;2.45;96.73
32875;BME280;40468;42.128;24.750;2023-01-24T05:34:12;101112.56;;;2.51;96.74
32875;BME280;40468;42.128;24.750;2023-01-24T05:35:45;101116.03;;;2.52;96.83
32875;BME280;40468;42.128;24.750;2023-01-24T05:37:16;101120.31;;;2.53;96.77
32875;BME280;40468;42.128;24.750;2023-01-24T05:38:48;101127.16;;;2.52;96.54
32875;BME280;40468;42.128;24.750;2023-01-24T05:40:20;101121.16;;;2.52;96.62
32875;BME280;40468;42.128;24.750;2023-01-24T05:41:52;101128.00;;;2.51;96.64
32875;BME280;40468;42.128;24.750;2023-01-24T05:43:24;101122.00;;;2.50;96.54
32875;BME280;40468;42.128;24.750;2023-01-24T05:44:55;101119.38;;;2.47;96.50
32875;BME280;40468;42.128;24.750;2023-01-24T05:46:27;101126.28;;;2.48;96.44
32875;BME280;40468;42.128;24.750;2023-01-24T05:47:59;101121.09;;;2.47;96.46
32875;BME280;40468;42.128;24.750;2023-01-24T05:49:33;101127.09;;;2.46;96.43
32875;BME280;40468;42.128;24.750;2023-01-24T05:51:06;101127.09;;;2.46;96.53
32875;BME280;40468;42.128;24.750;2023-01-24T05:52:38;101133.09;;;2.43;96.45
32875;BME280;40468;42.128;24.750;2023-01-24T05:54:09;101137.34;;;2.41;96.61
32875;BME280;40468;42.128;24.750;2023-01-24T05:55:41;101131.34;;;2.42;96.61
32875;BME280;40468;42.128;24.750;2023-01-24T05:57:13;101126.22;;;2.44;96.52
32875;BME280;40468;42.128;24.750;2023-01-24T05:58:47;101136.50;;;2.44;96.59
32875;BME280;40468;42.128;24.750;2023-01-24T06:00:20;101134.81;;;2.46;96.58
32875;BME280;40468;42.128;24.750;2023-01-24T06:01:52;101142.56;;;2.50;96.61
32875;BME280;40468;42.128;24.750;2023-01-24T06:03:24;101147.72;;;2.49;96.44
32875;BME280;40468;42.128;24.750;2023-01-24T06:04:57;101158.81;;;2.48;96.24
32875;BME280;40468;42.128;24.750;2023-01-24T06:06:29;101151.09;;;2.46;96.16
32875;BME280;40468;42.128;24.750;2023-01-24T06:08:00;101161.38;;;2.46;96.09
32875;BME280;40468;42.128;24.750;2023-01-24T06:09:31;101162.25;;;2.47;95.95
32875;BME280;40468;42.128;24.750;2023-01-24T06:11:04;101157.97;;;2.46;95.95
32875;BME280;40468;42.128;24.750;2023-01-24T06:12:37;101171.66;;;2.43;96.01
32875;BME280;40468;42.128;24.750;2023-01-24T06:14:08;101164.75;;;2.42;95.85
32875;BME280;40468;42.128;24.750;2023-01-24T06:15:41;101170.78;;;2.44;95.83
32875;BME280;40468;42.128;24.750;2023-01-24T06:17:12;101170.78;;;2.44;95.61
32875;BME280;40468;42.128;24.750;2023-01-24T06:18:44;101158.81;;;2.46;95.77
32875;BME280;40468;42.128;24.750;2023-01-24T06:20:18;101160.53;;;2.47;95.72
32875;BME280;40468;42.128;24.750;2023-01-24T06:21:55;101162.28;;;2.48;96.19
32875;BME280;40468;42.128;24.750;2023-01-24T06:23:31;101163.97;;;2.46;95.70
32875;BME280;40468;42.128;24.750;2023-01-24T06:25:03;101166.59;;;2.53;95.71
32875;BME280;40468;42.128;24.750;2023-01-24T06:26:36;101169.16;;;2.54;95.64
32875;BME280;40468;42.128;24.750;2023-01-24T06:28:09;101159.75;;;2.55;95.52
32875;BME280;40468;42.128;24.750;2023-01-24T06:29:41;101164.03;;;2.56;95.71
32875;BME280;40468;42.128;24.750;2023-01-24T06:31:22;101161.44;;;2.54;95.59
32875;BME280;40468;42.128;24.750;2023-01-24T06:33:10;101166.59;;;2.54;95.68
32875;BME280;40468;42.128;24.750;2023-01-24T06:35:07;101166.59;;;2.53;95.53
32875;BME280;40468;42.128;24.750;2023-01-24T06:36:49;101170.03;;;2.52;95.77
32875;BME280;40468;42.128;24.750;2023-01-24T06:38:24;101178.63;;;2.55;95.66
32875;BME280;40468;42.128;24.750;2023-01-24T06:39:57;101178.66;;;2.60;95.57
32875;BME280;40468;42.128;24.750;2023-01-24T06:41:29;101181.25;;;2.63;95.50
32875;BME280;40468;42.128;24.750;2023-01-24T06:43:02;101181.28;;;2.66;95.41
32875;BME280;40468;42.128;24.750;2023-01-24T06:44:35;101188.13;;;2.65;95.20
32875;BME280;40468;42.128;24.750;2023-01-24T06:46:08;101192.41;;;2.62;95.06
32875;BME280;40468;42.128;24.750;2023-01-24T06:47:40;101188.06;;;2.59;94.76
32875;BME280;40468;42.128;24.750;2023-01-24T06:49:13;101181.19;;;2.55;94.63
32875;BME280;40468;42.128;24.750;2023-01-24T06:50:45;101179.47;;;2.56;94.54
32875;BME280;40468;42.128;24.750;2023-01-24T06:52:19;101189.72;;;2.54;94.25
32875;BME280;40468;42.128;24.750;2023-01-24T06:53:51;101194.88;;;2.53;94.38
32875;BME280;40468;42.128;24.750;2023-01-24T06:55:23;101194.88;;;2.53;94.33
32875;BME280;40468;42.128;24.750;2023-01-24T06:56:55;101202.56;;;2.51;94.32
32875;BME280;40468;42.128;24.750;2023-01-24T06:58:27;101194.88;;;2.53;94.49
32875;BME280;40468;42.128;24.750;2023-01-24T06:59:59;101191.44;;;2.52;94.45
32875;BME280;40468;42.128;24.750;2023-01-24T07:01:31;101194.88;;;2.53;94.32
32875;BME280;40468;42.128;24.750;2023-01-24T07:03:04;101194.88;;;2.53;94.35
32875;BME280;40468;42.128;24.750;2023-01-24T07:04:37;101198.31;;;2.52;94.39
32875;BME280;40468;42.128;24.750;2023-01-24T07:06:09;101199.13;;;2.50;94.23
32875;BME280;40468;42.128;24.750;2023-01-24T07:07:42;101206.00;;;2.50;94.23
32875;BME280;40468;42.128;24.750;2023-01-24T07:09:14;101200.81;;;2.47;94.26
32875;BME280;40468;42.128;24.750;2023-01-24T07:10:46;101204.22;;;2.43;94.31
32875;BME280;40468;42.128;24.750;2023-01-24T07:12:18;101197.28;;;2.39;94.19
32875;BME280;40468;42.128;24.750;2023-01-24T07:13:50;101206.72;;;2.38;94.13
32875;BME280;40468;42.128;24.750;2023-01-24T07:15:22;101211.00;;;2.38;94.19
32875;BME280;40468;42.128;24.750;2023-01-24T07:16:54;101202.44;;;2.37;94.06
32875;BME280;40468;42.128;24.750;2023-01-24T07:18:27;101213.56;;;2.38;94.20
32875;BME280;40468;42.128;24.750;2023-01-24T07:20:00;101211.00;;;2.39;94.19
32875;BME280;40468;42.128;24.750;2023-01-24T07:21:34;101219.56;;;2.37;93.92
32875;BME280;40468;42.128;24.750;2023-01-24T07:23:22;101222.97;;;2.34;93.86
32875;BME280;40468;42.128;24.750;2023-01-24T07:24:55;101228.97;;;2.35;93.86
32875;BME280;40468;42.128;24.750;2023-01-24T07:26:28;101221.19;;;2.30;93.71
32875;BME280;40468;42.128;24.750;2023-01-24T07:28:00;101221.19;;;2.28;93.74
32875;BME280;40468;42.128;24.750;2023-01-24T07:29:32;101222.03;;;2.31;93.61
32875;BME280;40468;42.128;24.750;2023-01-24T07:31:05;101223.78;;;2.32;93.66
32875;BME280;40468;42.128;24.750;2023-01-24T07:32:37;101226.38;;;2.33;93.51
32875;BME280;40468;42.128;24.750;2023-01-24T07:34:09;101226.38;;;2.33;93.38
32875;BME280;40468;42.128;24.750;2023-01-24T07:35:42;101217.81;;;2.36;93.27
32875;BME280;40468;42.128;24.750;2023-01-24T07:37:14;101230.72;;;2.39;93.30
32875;BME280;40468;42.128;24.750;2023-01-24T07:38:52;101231.56;;;2.38;93.07
32875;BME280;40468;42.128;24.750;2023-01-24T07:40:24;101226.41;;;2.36;92.86
32875;BME280;40468;42.128;24.750;2023-01-24T07:41:56;101227.28;;;2.37;92.82
32875;BME280;40468;42.128;24.750;2023-01-24T07:43:28;101219.53;;;2.35;92.71
32875;BME280;40468;42.128;24.750;2023-01-24T07:45:01;101222.94;;;2.33;92.54
32875;BME280;40468;42.128;24.750;2023-01-24T07:46:34;101216.94;;;2.34;92.23
32875;BME280;40468;42.128;24.750;2023-01-24T07:48:07;101234.06;;;2.33;92.18
32875;BME280;40468;42.128;24.750;2023-01-24T07:49:39;101234.13;;;2.35;92.10
32875;BME280;40468;42.128;24.750;2023-01-24T07:51:11;101232.41;;;2.35;92.09
32875;BME280;40468;42.128;24.750;2023-01-24T07:52:43;101229.84;;;2.38;91.86
32875;BME280;40468;42.128;24.750;2023-01-24T07:54:16;101235.84;;;2.39;91.83
32875;BME280;40468;42.128;24.750;2023-01-24T07:55:50;101236.75;;;2.41;91.66
32875;BME280;40468;42.128;24.750;2023-01-24T07:57:22;101241.88;;;2.42;91.63
32875;BME280;40468;42.128;24.750;2023-01-24T07:58:54;101247.94;;;2.43;91.45
32875;BME280;40468;42.128;24.750;2023-01-24T08:00:27;101246.22;;;2.43;91.34
32875;BME280;40468;42.128;24.750;2023-01-24T08:01:59;101252.22;;;2.45;91.41
32875;BME280;40468;42.128;24.750;2023-01-24T08:03:31;101245.34;;;2.43;91.12
32875;BME280;40468;42.128;24.750;2023-01-24T08:05:04;101252.28;;;2.48;91.13
32875;BME280;40468;42.128;24.750;2023-01-24T08:06:38;101243.63;;;2.43;91.16
32875;BME280;40468;42.128;24.750;2023-01-24T08:08:30;101245.38;;;2.46;91.04
32875;BME280;40468;42.128;24.750;2023-01-24T08:10:04;101246.25;;;2.46;91.01
32875;BME280;40468;42.128;24.750;2023-01-24T08:11:36;101249.69;;;2.48;90.91